createdAt,value
2023-11-13T00:00:16.960Z,11.50
2023-11-13T00:02:45.080Z,15.38
2023-11-13T00:05:12.364Z,12.30
2023-11-13T00:07:39.396Z,13.65
2023-11-13T00:10:09.409Z,15.18
2023-11-13T00:12:36.929Z,12.50
2023-11-13T00:15:05.335Z,10.10
2023-11-13T00:17:32.272Z,11.82
2023-11-13T00:19:59.292Z,14.75
2023-11-13T00:22:26.428Z,13.07
2023-11-13T00:24:53.742Z,12.55
2023-11-13T00:27:20.699Z,9.77
2023-11-13T00:29:47.714Z,11.52
2023-11-13T00:32:14.764Z,12.82
2023-11-13T00:34:41.805Z,13.05
2023-11-13T00:37:08.797Z,16.90
2023-11-13T00:39:36.062Z,11.48
2023-11-13T00:42:03.110Z,13.15
2023-11-13T00:44:30.105Z,10.38
2023-11-13T00:46:57.313Z,14.50
2023-11-13T00:49:24.636Z,13.80
2023-11-13T00:51:54.328Z,12.27
2023-11-13T00:54:21.415Z,15.63
2023-11-13T00:56:49.321Z,9.60
2023-11-13T00:59:16.474Z,8.05
2023-11-13T01:01:44.380Z,8.20
2023-11-13T01:04:11.418Z,14.00
2023-11-13T01:06:38.412Z,15.25
2023-11-13T01:09:05.385Z,6.82
2023-11-13T01:11:32.310Z,8.75
2023-11-13T01:13:59.266Z,7.25
2023-11-13T01:16:26.427Z,10.35
2023-11-13T01:18:54.936Z,10.82
2023-11-13T01:21:25.532Z,12.55
2023-11-13T01:23:52.489Z,11.80
2023-11-13T01:26:19.419Z,14.32
2023-11-13T01:28:46.334Z,16.02
2023-11-13T01:31:16.581Z,11.23
2023-11-13T01:33:43.673Z,10.27
2023-11-13T01:36:10.886Z,11.27
2023-11-13T01:38:37.840Z,23.58
2023-11-13T01:41:04.977Z,13.75
2023-11-13T01:43:32.072Z,14.43
2023-11-13T01:46:00.085Z,14.23
2023-11-13T01:48:27.607Z,15.10
2023-11-13T01:50:54.957Z,15.02
2023-11-13T01:53:26.433Z,15.27
2023-11-13T01:55:57.077Z,18.83
2023-11-13T01:58:24.835Z,17.00
2023-11-13T02:00:53.998Z,15.73
2023-11-13T02:03:21.846Z,19.67
2023-11-13T02:05:50.549Z,23.23
2023-11-13T02:08:17.515Z,24.25
2023-11-13T02:10:44.983Z,14.85
2023-11-13T02:13:13.512Z,16.88
2023-11-13T02:15:41.939Z,18.20
2023-11-13T02:18:09.153Z,16.77
2023-11-13T02:20:36.302Z,16.15
2023-11-13T02:23:03.930Z,13.80
2023-11-13T02:25:38.842Z,19.90
2023-11-13T02:28:07.210Z,23.53
2023-11-13T02:30:38.281Z,23.70
2023-11-13T02:33:05.880Z,14.27
2023-11-13T02:35:32.974Z,15.98
2023-11-13T02:38:00.194Z,13.55
2023-11-13T02:40:28.705Z,13.00
2023-11-13T02:42:55.994Z,68.47
2023-11-13T02:45:24.519Z,15.30
2023-11-13T02:47:54.168Z,14.70
2023-11-13T02:50:22.310Z,25.35
2023-11-13T02:52:49.930Z,13.13
2023-11-13T02:55:17.577Z,10.32
2023-11-13T02:57:44.670Z,18.70
2023-11-13T03:00:12.585Z,13.07
2023-11-13T03:02:39.760Z,16.00
2023-11-13T03:05:07.550Z,14.18
2023-11-13T03:07:35.592Z,12.85
2023-11-13T03:10:02.610Z,14.05
2023-11-13T03:12:29.702Z,13.52
2023-11-13T03:14:56.772Z,12.73
2023-11-13T03:17:23.744Z,11.60
2023-11-13T03:19:51.013Z,16.75
2023-11-13T03:22:17.953Z,10.93
2023-11-13T03:24:47.651Z,13.20
2023-11-13T03:27:14.809Z,11.80
2023-11-13T03:29:41.819Z,13.05
2023-11-13T03:32:10.385Z,16.25
2023-11-13T03:34:38.381Z,17.05
2023-11-13T03:37:05.649Z,13.13
2023-11-13T03:39:32.619Z,14.15
2023-11-13T03:41:59.579Z,15.07
2023-11-13T03:44:26.531Z,14.90
2023-11-13T03:46:53.468Z,13.88
2023-11-13T03:49:20.658Z,15.55
2023-11-13T03:51:48.995Z,17.42
2023-11-13T03:54:15.958Z,13.93
2023-11-13T03:56:42.886Z,15.45
2023-11-13T03:59:09.783Z,15.02
2023-11-13T04:01:36.782Z,14.25
2023-11-13T04:04:04.099Z,15.40
2023-11-13T04:06:31.167Z,15.50
2023-11-13T04:08:58.170Z,10.30
2023-11-13T04:11:25.546Z,14.07
2023-11-13T04:13:52.468Z,12.73
2023-11-13T04:16:19.715Z,15.65
2023-11-13T04:18:46.945Z,12.65
2023-11-13T04:21:14.956Z,14.15
2023-11-13T04:23:41.927Z,17.52
2023-11-13T04:26:10.284Z,12.73
2023-11-13T04:28:40.305Z,15.93
2023-11-13T04:31:09.428Z,17.30
2023-11-13T04:33:36.953Z,18.50
2023-11-13T04:36:06.747Z,15.90
2023-11-13T04:38:37.354Z,18.63
2023-11-13T04:41:05.208Z,13.45
2023-11-13T04:43:32.229Z,19.85
2023-11-13T04:46:00.150Z,18.58
2023-11-13T04:48:27.196Z,15.80
2023-11-13T04:50:54.919Z,16.17
2023-11-13T04:53:22.468Z,14.40
2023-11-13T04:55:49.356Z,13.60
2023-11-13T04:58:18.068Z,15.23
2023-11-13T05:00:46.942Z,15.50
2023-11-13T05:03:13.852Z,14.68
2023-11-13T05:05:41.081Z,20.15
2023-11-13T05:08:08.136Z,18.17
2023-11-13T05:10:35.133Z,15.57
2023-11-13T05:13:02.694Z,18.55
2023-11-13T05:15:30.770Z,17.45
2023-11-13T05:17:57.960Z,19.05
2023-11-13T05:20:24.933Z,16.35
2023-11-13T05:22:52.196Z,15.35
2023-11-13T05:25:19.713Z,14.50
2023-11-13T05:27:47.003Z,17.23
2023-11-13T05:30:14.463Z,18.73
2023-11-13T05:32:41.624Z,20.48
2023-11-13T05:35:09.199Z,19.98
2023-11-13T05:37:36.204Z,22.33
2023-11-13T05:40:03.526Z,25.88
2023-11-13T05:42:30.587Z,23.35
2023-11-13T05:44:57.573Z,22.95
2023-11-13T05:47:25.070Z,21.27
2023-11-13T05:49:52.159Z,19.90
2023-11-13T05:52:19.741Z,25.00
2023-11-13T05:54:46.929Z,21.23
2023-11-13T05:57:13.947Z,19.88
2023-11-13T05:59:40.966Z,22.20
2023-11-13T06:02:08.533Z,20.17
2023-11-13T06:04:37.309Z,21.67
2023-11-13T06:07:04.654Z,27.42
2023-11-13T06:09:31.700Z,25.08
2023-11-13T06:11:58.621Z,19.15
2023-11-13T06:14:26.030Z,26.75
2023-11-13T06:16:53.129Z,28.33
2023-11-13T06:19:20.372Z,25.13
2023-11-13T06:21:47.627Z,25.35
2023-11-13T06:24:14.646Z,25.83
2023-11-13T06:27:01.892Z,28.83
2023-11-13T06:29:28.903Z,31.75
2023-11-13T06:31:56.751Z,27.38
2023-11-13T06:34:23.845Z,25.05
2023-11-13T06:36:53.951Z,28.48
2023-11-13T06:39:24.036Z,26.40
2023-11-13T06:41:51.562Z,30.75
2023-11-13T06:44:18.743Z,28.60
2023-11-13T06:46:45.863Z,30.73
2023-11-13T06:49:13.330Z,37.10
2023-11-13T06:51:40.465Z,36.10
2023-11-13T06:54:09.189Z,27.60
2023-11-13T06:56:37.653Z,41.60
2023-11-13T06:59:07.768Z,34.58
2023-11-13T07:01:42.529Z,32.17
2023-11-13T07:04:14.033Z,37.67
2023-11-13T07:06:42.438Z,35.28
2023-11-13T07:09:12.404Z,32.38
2023-11-13T07:11:43.999Z,35.08
2023-11-13T07:14:13.071Z,40.97
2023-11-13T07:16:43.939Z,36.15
2023-11-13T07:19:15.232Z,36.45
2023-11-13T07:21:42.813Z,34.42
2023-11-13T07:24:10.882Z,34.25
2023-11-13T07:26:38.064Z,38.65
2023-11-13T07:29:05.546Z,34.05
2023-11-13T07:31:32.638Z,32.90
2023-11-13T07:34:00.273Z,33.47
2023-11-13T07:36:27.735Z,41.45
2023-11-13T07:38:54.898Z,34.80
2023-11-13T07:41:22.575Z,42.80
2023-11-13T07:43:49.795Z,42.22
2023-11-13T07:46:19.819Z,43.10
2023-11-13T07:48:47.838Z,40.22
2023-11-13T07:51:14.946Z,43.38
2023-11-13T07:53:41.934Z,44.17
2023-11-13T07:56:10.769Z,47.90
2023-11-13T07:58:39.192Z,43.20
2023-11-13T08:01:06.330Z,56.63
2023-11-13T08:03:33.443Z,38.65
2023-11-13T08:06:00.478Z,43.15
2023-11-13T08:08:27.497Z,37.83
2023-11-13T08:10:55.036Z,48.05
2023-11-13T08:13:23.760Z,52.20
2023-11-13T08:15:52.206Z,38.50
2023-11-13T08:18:20.078Z,36.83
2023-11-13T08:20:48.220Z,39.28
2023-11-13T08:23:16.060Z,35.47
2023-11-13T08:25:49.152Z,30.67
2023-11-13T08:28:16.281Z,29.30
2023-11-13T08:30:45.388Z,31.92
2023-11-13T08:33:14.042Z,31.85
2023-11-13T08:35:42.784Z,33.40
2023-11-13T08:38:12.512Z,32.53
2023-11-13T08:40:40.071Z,31.80
2023-11-13T08:43:12.586Z,38.45
2023-11-13T08:45:54.563Z,30.73
2023-11-13T08:48:28.923Z,28.90
2023-11-13T08:51:00.439Z,27.08
2023-11-13T08:53:30.971Z,26.60
2023-11-13T08:55:58.420Z,27.10
2023-11-13T08:58:25.896Z,24.55
2023-11-13T09:00:54.830Z,23.67
2023-11-13T09:03:22.344Z,24.83
2023-11-13T09:05:50.697Z,28.52
2023-11-13T09:08:18.055Z,21.33
2023-11-13T09:10:46.298Z,21.65
2023-11-13T09:13:14.460Z,25.70
2023-11-13T09:15:42.271Z,26.85
2023-11-13T09:18:11.079Z,19.98
2023-11-13T09:20:40.047Z,22.40
2023-11-13T09:23:07.191Z,19.60
2023-11-13T09:25:34.699Z,20.67
2023-11-13T09:28:02.302Z,17.65
2023-11-13T09:30:31.236Z,17.60
2023-11-13T09:32:58.684Z,26.90
2023-11-13T09:35:27.406Z,21.48
2023-11-13T09:38:02.953Z,30.17
2023-11-13T09:40:36.183Z,22.70
2023-11-13T09:43:21.426Z,19.75
2023-11-13T09:45:53.433Z,23.08
2023-11-13T09:51:29.399Z,25.15
2023-11-13T09:54:00.032Z,23.20
2023-11-13T09:56:30.816Z,23.85
2023-11-13T09:59:04.007Z,20.83
2023-11-13T10:01:32.677Z,27.52
2023-11-13T10:04:05.788Z,26.75
2023-11-13T10:06:37.096Z,25.25
2023-11-13T10:09:05.575Z,21.67
2023-11-13T10:11:34.014Z,16.77
2023-11-13T10:14:13.126Z,19.17
2023-11-13T10:16:40.399Z,21.23
2023-11-13T10:19:17.432Z,26.05
2023-11-13T10:21:44.929Z,19.05
2023-11-13T10:24:33.677Z,18.92
2023-11-13T10:27:12.085Z,15.65
2023-11-13T10:29:39.380Z,13.27
2023-11-13T10:32:06.948Z,15.23
2023-11-13T10:34:46.086Z,16.70
2023-11-13T10:37:17.753Z,19.02
2023-11-13T10:39:45.860Z,12.65
2023-11-13T10:42:25.303Z,13.05
2023-11-13T10:45:00.900Z,15.98
2023-11-13T10:50:03.813Z,9.77
2023-11-13T10:52:30.996Z,10.40
2023-11-13T10:55:03.408Z,13.10
2023-11-13T10:57:30.656Z,11.63
2023-11-13T10:59:58.489Z,9.82
2023-11-13T11:05:56.066Z,8.05
2023-11-13T11:08:26.093Z,13.65
2023-11-13T11:10:54.339Z,8.55
2023-11-13T11:13:22.784Z,3.83
2023-11-13T11:16:23.863Z,5.72
2023-11-13T11:19:13.182Z,3.90
2023-11-13T11:22:07.731Z,5.35
2023-11-13T11:24:59.520Z,3.03
2023-11-13T11:27:43.987Z,7.72
2023-11-13T11:30:20.180Z,3.95
2023-11-13T11:32:55.339Z,4.45
2023-11-13T11:35:24.205Z,2.88
2023-11-13T11:38:29.144Z,3.45
2023-11-13T11:41:54.781Z,4.55
2023-11-13T11:44:28.803Z,4.55
2023-11-13T11:47:05.069Z,3.05
2023-11-13T11:49:44.814Z,4.15
2023-11-13T11:52:13.211Z,5.28
2023-11-13T11:54:40.629Z,3.45
2023-11-13T11:57:08.934Z,4.00
2023-11-13T11:59:38.344Z,6.30
2023-11-13T12:02:06.132Z,5.40
2023-11-13T12:04:38.347Z,3.58
2023-11-13T12:07:10.470Z,3.50
2023-11-13T12:09:38.021Z,3.78
2023-11-13T12:12:05.676Z,4.47
2023-11-13T12:14:32.895Z,7.60
2023-11-13T12:17:00.161Z,7.82
2023-11-13T12:19:27.564Z,4.70
2023-11-13T12:21:54.689Z,6.80
2023-11-13T12:24:22.513Z,4.57
2023-11-13T12:26:50.485Z,6.82
2023-11-13T12:29:20.280Z,10.43
2023-11-13T12:31:52.929Z,10.63
2023-11-13T12:34:20.464Z,13.00
2023-11-13T12:36:50.843Z,10.68
2023-11-13T12:39:20.390Z,7.20
2023-11-13T12:41:48.539Z,6.55
2023-11-13T12:44:21.081Z,12.38
2023-11-13T12:46:50.258Z,10.90
2023-11-13T12:49:18.439Z,9.38
2023-11-13T12:51:50.211Z,13.07
2023-11-13T12:54:17.607Z,11.27
2023-11-13T12:56:48.792Z,12.35
2023-11-13T12:59:17.988Z,12.80
2023-11-13T13:01:49.393Z,12.48
2023-11-13T13:04:21.558Z,6.40
2023-11-13T13:06:55.429Z,7.65
2023-11-13T13:09:25.398Z,10.00
2023-11-13T13:11:54.917Z,8.38
2023-11-13T13:14:24.497Z,8.23
2023-11-13T13:16:56.506Z,8.27
2023-11-13T13:19:25.174Z,9.85
2023-11-13T13:21:56.084Z,8.98
2023-11-13T13:24:27.142Z,7.78
2023-11-13T13:26:57.532Z,9.15
2023-11-13T13:29:25.151Z,9.25
2023-11-13T13:31:53.013Z,9.45
2023-11-13T13:34:20.321Z,7.85
2023-11-13T13:36:47.642Z,11.00
2023-11-13T13:39:17.593Z,8.68
2023-11-13T13:41:45.306Z,10.30
2023-11-13T13:44:14.287Z,7.25
2023-11-13T13:46:43.601Z,11.82
2023-11-13T13:49:11.563Z,8.70
2023-11-13T13:51:39.414Z,10.48
2023-11-13T13:54:08.284Z,14.55
2023-11-13T13:56:36.196Z,15.00
2023-11-13T13:59:10.135Z,11.48
2023-11-13T14:01:38.005Z,10.57
2023-11-13T14:04:08.793Z,10.18
2023-11-13T14:06:36.811Z,11.63
2023-11-13T14:09:08.320Z,10.63
2023-11-13T14:11:44.205Z,10.25
2023-11-13T14:14:15.225Z,10.23
2023-11-13T14:16:42.310Z,9.85
2023-11-13T14:19:11.536Z,10.00
2023-11-13T14:21:40.001Z,10.75
2023-11-13T14:24:10.843Z,12.07
2023-11-13T14:26:38.439Z,11.60
2023-11-13T14:29:06.697Z,7.68
2023-11-13T14:31:33.887Z,12.48
2023-11-13T14:34:00.958Z,10.65
2023-11-13T14:36:28.347Z,11.35
2023-11-13T14:38:55.442Z,10.48
2023-11-13T14:41:24.108Z,10.40
2023-11-13T14:43:53.019Z,4.10
2023-11-13T14:46:20.307Z,9.15
2023-11-13T14:48:47.536Z,8.05
2023-11-13T14:51:16.354Z,7.68
2023-11-13T14:53:43.501Z,6.28
2023-11-13T14:56:11.106Z,9.45
2023-11-13T14:58:38.767Z,9.07
2023-11-13T15:01:06.959Z,10.60
2023-11-13T15:03:34.501Z,11.98
2023-11-13T15:06:01.765Z,11.32
2023-11-13T15:08:28.789Z,15.63
2023-11-13T15:10:57.009Z,15.45
2023-11-13T15:13:24.476Z,17.00
2023-11-13T15:15:53.739Z,19.35
2023-11-13T15:18:21.268Z,12.85
2023-11-13T15:20:48.517Z,19.90
2023-11-13T15:23:26.312Z,12.57
2023-11-13T15:26:02.910Z,20.63
2023-11-13T15:28:29.880Z,16.77
2023-11-13T15:30:57.354Z,19.65
2023-11-13T15:33:24.636Z,20.73
2023-11-13T15:35:56.225Z,27.52
2023-11-13T15:38:23.345Z,22.08
2023-11-13T15:40:50.633Z,27.92
2023-11-13T15:43:17.811Z,26.38
2023-11-13T15:45:45.008Z,34.45
2023-11-13T15:48:13.631Z,27.20
2023-11-13T15:50:43.450Z,22.77
2023-11-13T15:53:10.452Z,21.10
2023-11-13T15:55:38.713Z,32.63
2023-11-13T15:58:09.645Z,36.53
2023-11-13T16:00:36.978Z,26.83
2023-11-13T16:03:07.760Z,27.88
2023-11-13T16:05:35.659Z,35.83
2023-11-13T16:08:03.115Z,39.70
2023-11-13T16:10:30.096Z,32.95
2023-11-13T16:12:58.239Z,32.22
2023-11-13T16:15:27.026Z,33.90
2023-11-13T16:17:54.031Z,35.65
2023-11-13T16:20:22.328Z,43.65
2023-11-13T16:22:50.808Z,34.20
2023-11-13T16:25:18.240Z,32.15
2023-11-13T16:27:45.350Z,32.08
2023-11-13T16:30:12.684Z,40.83
2023-11-13T16:32:42.400Z,39.00
2023-11-13T16:35:14.058Z,28.20
2023-11-13T16:37:41.284Z,32.78
2023-11-13T16:40:10.500Z,44.97
2023-11-13T16:42:38.259Z,33.33
2023-11-13T16:45:05.948Z,36.42
2023-11-13T16:47:34.272Z,31.15
2023-11-13T16:50:01.446Z,37.85
2023-11-13T16:52:28.492Z,34.10
2023-11-13T16:54:55.454Z,40.40
2023-11-13T16:57:22.501Z,36.53
2023-11-13T16:59:49.540Z,33.75
2023-11-13T17:02:17.820Z,45.53
2023-11-13T17:04:44.913Z,30.27
2023-11-13T17:07:12.419Z,35.50
2023-11-13T17:09:41.204Z,35.00
2023-11-13T17:12:09.156Z,54.08
2023-11-13T17:14:36.285Z,29.83
2023-11-13T17:17:04.035Z,38.55
2023-11-13T17:19:31.143Z,39.08
2023-11-13T17:21:58.449Z,42.72
2023-11-13T17:24:26.239Z,35.35
2023-11-13T17:26:53.936Z,30.98
2023-11-13T17:29:21.732Z,43.03
2023-11-13T17:31:48.843Z,36.95
2023-11-13T17:34:15.914Z,31.40
2023-11-13T17:36:43.012Z,31.05
2023-11-13T17:39:10.708Z,31.48
2023-11-13T17:41:37.713Z,41.80
2023-11-13T17:44:05.020Z,37.85
2023-11-13T17:46:32.304Z,35.08
2023-11-13T17:48:59.530Z,29.88
2023-11-13T17:51:29.112Z,33.67
2023-11-13T17:53:56.693Z,35.17
2023-11-13T17:56:25.554Z,35.88
2023-11-13T17:58:52.661Z,40.05
2023-11-13T18:01:21.621Z,25.13
2023-11-13T18:03:50.719Z,34.17
2023-11-13T18:06:17.845Z,34.90
2023-11-13T18:08:44.844Z,30.58
2023-11-13T18:11:12.008Z,44.00
2023-11-13T18:13:40.091Z,28.88
2023-11-13T18:16:08.634Z,28.58
2023-11-13T18:18:36.205Z,30.17
2023-11-13T18:21:05.108Z,43.25
2023-11-13T18:23:32.400Z,22.15
2023-11-13T18:26:01.719Z,23.00
2023-11-13T18:28:29.183Z,16.70
2023-11-13T18:30:59.400Z,25.58
2023-11-13T18:33:30.344Z,27.95
2023-11-13T18:35:58.771Z,19.95
2023-11-13T18:38:27.052Z,28.45
2023-11-13T18:40:54.273Z,22.63
2023-11-13T18:43:21.376Z,27.35
2023-11-13T18:45:51.512Z,16.88
2023-11-13T18:48:19.480Z,28.63
2023-11-13T18:50:46.520Z,22.80
2023-11-13T18:53:13.862Z,26.77
2023-11-13T18:55:41.108Z,25.13
2023-11-13T18:58:08.627Z,24.27
2023-11-13T19:00:35.772Z,15.43
2023-11-13T19:03:03.146Z,21.77
2023-11-13T19:05:30.399Z,27.58
2023-11-13T19:07:57.518Z,17.60
2023-11-13T19:10:24.633Z,22.45
2023-11-13T19:12:52.467Z,30.30
2023-11-13T19:15:19.714Z,23.27
2023-11-13T19:17:46.859Z,20.77
2023-11-13T19:20:14.839Z,21.98
2023-11-13T19:22:47.216Z,27.15
2023-11-13T19:25:14.312Z,20.75
2023-11-13T19:27:43.369Z,19.27
2023-11-13T19:30:11.289Z,23.20
2023-11-13T19:32:38.361Z,20.70
2023-11-13T19:35:07.653Z,30.60
2023-11-13T19:37:35.116Z,47.78
2023-11-13T19:40:02.236Z,18.85
2023-11-13T19:42:29.355Z,28.10
2023-11-13T19:44:56.462Z,27.35
2023-11-13T19:47:23.668Z,23.77
2023-11-13T19:49:50.992Z,28.75
2023-11-13T19:52:19.958Z,43.00
2023-11-13T19:54:47.394Z,33.50
2023-11-13T19:57:14.491Z,25.73
2023-11-13T19:59:45.129Z,28.90
2023-11-13T20:02:13.207Z,32.22
2023-11-13T20:04:40.498Z,28.23
2023-11-13T20:07:08.240Z,30.40
2023-11-13T20:09:35.909Z,39.05
2023-11-13T20:12:04.072Z,17.80
2023-11-13T20:14:31.413Z,30.88
2023-11-13T20:16:58.834Z,23.88
2023-11-13T20:19:26.253Z,38.00
2023-11-13T20:21:53.535Z,32.13
2023-11-13T20:24:20.663Z,32.80
2023-11-13T20:26:49.524Z,19.88
2023-11-13T20:29:16.779Z,30.27
2023-11-13T20:31:43.824Z,22.95
2023-11-13T20:34:11.007Z,26.23
2023-11-13T20:36:38.053Z,21.38
2023-11-13T20:39:05.040Z,21.95
2023-11-13T20:41:33.259Z,32.38
2023-11-13T20:44:01.279Z,25.45
2023-11-13T20:46:28.527Z,28.30
2023-11-13T20:48:55.969Z,22.17
2023-11-13T20:51:23.037Z,41.35
2023-11-13T20:53:50.078Z,27.60
2023-11-13T20:56:17.471Z,32.35
2023-11-13T20:58:45.321Z,20.98
2023-11-13T21:01:15.381Z,19.75
2023-11-13T21:03:42.465Z,23.92
2023-11-13T21:06:09.654Z,29.50
2023-11-13T21:08:36.823Z,41.05
2023-11-13T21:11:05.832Z,22.50
2023-11-13T21:13:33.735Z,22.40
2023-11-13T21:16:00.990Z,38.20
2023-11-13T21:18:29.626Z,20.83
2023-11-13T21:21:00.022Z,26.55
2023-11-13T21:23:27.588Z,31.63
2023-11-13T21:25:54.856Z,28.20
2023-11-13T21:28:22.159Z,23.92
2023-11-13T21:30:51.651Z,29.35
2023-11-13T21:33:20.770Z,30.27
2023-11-13T21:35:48.591Z,23.20
2023-11-13T21:38:15.908Z,23.48
2023-11-13T21:40:44.742Z,29.48
2023-11-13T21:43:11.928Z,31.35
2023-11-13T21:45:39.486Z,28.85
2023-11-13T21:48:06.877Z,28.80
2023-11-13T21:50:33.988Z,24.42
2023-11-13T21:53:02.429Z,25.25
2023-11-13T21:55:30.756Z,31.70
2023-11-13T21:57:58.604Z,28.10
2023-11-13T22:00:25.961Z,24.58
2023-11-13T22:02:53.878Z,18.88
2023-11-13T22:05:21.806Z,25.63
2023-11-13T22:07:49.196Z,23.52
2023-11-13T22:10:16.454Z,23.02
2023-11-13T22:12:43.643Z,22.05
2023-11-13T22:15:16.531Z,23.48
2023-11-13T22:17:45.272Z,24.83
2023-11-13T22:20:13.176Z,20.90
2023-11-13T22:22:40.274Z,31.58
2023-11-13T22:25:09.357Z,33.75
2023-11-13T22:27:36.542Z,23.45
2023-11-13T22:30:03.813Z,17.88
2023-11-13T22:32:30.783Z,27.45
2023-11-13T22:34:57.826Z,17.92
2023-11-13T22:37:24.876Z,30.38
2023-11-13T22:39:51.813Z,25.20
2023-11-13T22:42:18.763Z,24.65
2023-11-13T22:44:45.759Z,27.67
2023-11-13T22:47:13.061Z,38.70
2023-11-13T22:49:41.484Z,37.47
2023-11-13T22:52:08.463Z,22.13
2023-11-13T22:54:35.430Z,21.35
2023-11-13T22:57:02.388Z,21.73
2023-11-13T22:59:29.368Z,28.23
2023-11-13T23:01:56.498Z,33.03
2023-11-13T23:04:23.499Z,17.13
2023-11-13T23:06:50.501Z,34.15
2023-11-13T23:09:17.544Z,35.63
2023-11-13T23:11:44.560Z,27.98
2023-11-13T23:14:11.870Z,21.15
2023-11-13T23:16:38.876Z,28.30
2023-11-13T23:19:05.942Z,29.65
2023-11-13T23:21:33.300Z,28.27
2023-11-13T23:24:00.259Z,18.45
2023-11-13T23:26:27.217Z,30.05
2023-11-13T23:28:54.176Z,27.80
2023-11-13T23:31:21.833Z,30.00
2023-11-13T23:33:49.547Z,29.38
2023-11-13T23:36:16.576Z,25.02
2023-11-13T23:38:44.087Z,32.08
2023-11-13T23:41:11.105Z,35.33
2023-11-13T23:43:38.374Z,42.78
2023-11-13T23:46:05.871Z,40.85
2023-11-13T23:48:33.397Z,26.98
2023-11-13T23:51:00.313Z,31.38
2023-11-13T23:53:27.368Z,24.92
2023-11-13T23:55:54.886Z,35.47
2023-11-13T23:58:21.901Z,27.73
